Aviation Digital Data Service (ADDS)

Output produced by METARs form (0015 UTC 26 June 2017)
found at http://aviationweather.gov/adds/metars/
 
KCLE 252339Z 2600/2706 26010G20KT P6SM BKN080 
     FM260200 24008KT P6SM SCT080 
     FM261200 24010KT P6SM BKN040 
     FM261400 24010G20KT P6SM BKN050 
     FM261800 26015G25KT P6SM BKN060 
     FM270000 26012KT P6SM BKN080